Time,TemperatureF,DewpointF,PressureIn,WindDirection,WindDirectionDegrees,WindSpeedMPH,WindSpeedGustMPH,Humidity,HourlyPrecipIn,Conditions,Clouds,dailyrainin,SoftwareType,DateUTC
2013-04-07 00:00:00,31.2,28.1,29.79,NNE,30,2.0,2.0,88,0.00,,,0.00,Wunderground v.1.15,2013-04-07 05:00:00,
2013-04-07 00:10:00,31.2,28.1,29.79,NNE,31,2.0,2.0,88,0.00,,,0.00,Wunderground v.1.15,2013-04-07 05:10:00,
2013-04-07 00:20:00,31.3,28.2,29.79,NNE,31,1.0,1.0,88,0.00,,,0.00,Wunderground v.1.15,2013-04-07 05:20:00,
2013-04-07 00:25:00,31.4,28.3,29.79,NNE,31,0.0,1.0,88,0.00,,,0.00,Wunderground v.1.15,2013-04-07 05:25:00,
2013-04-07 00:30:00,31.4,28.5,29.79,NNE,31,0.0,0.0,89,0.00,,,0.00,Wunderground v.1.15,2013-04-07 05:30:00,
2013-04-07 00:35:00,31.4,28.5,29.80,NNE,30,0.0,0.0,89,0.00,,,0.00,Wunderground v.1.15,2013-04-07 05:35:00,
2013-04-07 00:45:00,31.5,28.6,29.81,NNE,31,0.0,0.0,89,0.00,,,0.00,Wunderground v.1.15,2013-04-07 05:45:00,
2013-04-07 00:50:00,31.5,28.6,29.81,NNE,30,0.0,1.0,89,0.00,,,0.00,Wunderground v.1.15,2013-04-07 05:50:00,
2013-04-07 01:00:00,31.5,28.4,29.81,NNE,30,1.0,1.0,88,0.00,,,0.00,Wunderground v.1.15,2013-04-07 06:00:00,
2013-04-07 01:10:00,31.4,28.5,29.81,NNE,30,1.0,1.0,89,0.00,,,0.00,Wunderground v.1.15,2013-04-07 06:10:00,
2013-04-07 01:15:00,31.4,28.5,29.82,NNE,31,0.0,1.0,89,0.00,,,0.00,Wunderground v.1.15,2013-04-07 06:15:00,
2013-04-07 01:20:00,31.4,28.5,29.81,NNE,31,0.0,0.0,89,0.00,,,0.00,Wunderground v.1.15,2013-04-07 06:20:00,
2013-04-07 01:25:00,31.5,28.6,29.81,NNE,31,0.0,0.0,89,0.00,,,0.00,Wunderground v.1.15,2013-04-07 06:25:00,
2013-04-07 01:30:00,31.6,28.7,29.80,NNE,31,0.0,0.0,89,0.00,,,0.00,Wunderground v.1.15,2013-04-07 06:30:00,
2013-04-07 01:40:00,31.8,28.9,29.80,NNE,30,0.0,0.0,89,0.00,,,0.00,Wunderground v.1.15,2013-04-07 06:40:00,
2013-04-07 01:45:00,31.8,28.9,29.80,NNE,31,0.0,0.0,89,0.00,,,0.00,Wunderground v.1.15,2013-04-07 06:45:00,
2013-04-07 01:50:00,31.9,29.0,29.81,NNE,31,0.0,0.0,89,0.00,,,0.00,Wunderground v.1.15,2013-04-07 06:50:00,
2013-04-07 02:00:00,31.9,29.0,29.81,NNE,30,0.0,0.0,89,0.00,,,0.00,Wunderground v.1.15,2013-04-07 07:00:00,
2013-04-07 02:10:00,31.9,29.0,29.81,NNE,30,0.0,0.0,89,0.00,,,0.00,Wunderground v.1.15,2013-04-07 07:10:00,
2013-04-07 02:15:00,31.8,28.9,29.81,NNE,31,0.0,0.0,89,0.00,,,0.00,Wunderground v.1.15,2013-04-07 07:15:00,
2013-04-07 02:25:00,31.7,28.8,29.81,NNE,31,1.0,1.0,89,0.00,,,0.00,Wunderground v.1.15,2013-04-07 07:25:00,
2013-04-07 02:35:00,31.5,28.6,29.81,NNE,30,1.0,1.0,89,0.00,,,0.00,Wunderground v.1.15,2013-04-07 07:35:00,
2013-04-07 02:40:00,31.5,28.6,29.81,NNE,30,1.0,2.0,89,0.00,,,0.00,Wunderground v.1.15,2013-04-07 07:40:00,
2013-04-07 02:45:00,31.6,28.7,29.81,NNE,31,1.0,2.0,89,0.00,,,0.00,Wunderground v.1.15,2013-04-07 07:45:00,
2013-04-07 02:55:00,31.6,28.7,29.81,NNE,31,1.0,1.0,89,0.00,,,0.00,Wunderground v.1.15,2013-04-07 07:55:00,
2013-04-07 03:00:00,31.6,28.7,29.81,NNE,30,0.0,2.0,89,0.00,,,0.00,Wunderground v.1.15,2013-04-07 08:00:00,
2013-04-07 03:10:00,31.6,28.7,29.81,NNE,31,1.0,2.0,89,0.00,,,0.00,Wunderground v.1.15,2013-04-07 08:10:00,
2013-04-07 03:15:00,31.6,28.7,29.81,NNE,30,1.0,2.0,89,0.00,,,0.00,Wunderground v.1.15,2013-04-07 08:15:00,
2013-04-07 03:20:00,31.6,28.7,29.81,NNE,30,1.0,2.0,89,0.00,,,0.00,Wunderground v.1.15,2013-04-07 08:20:00,
2013-04-07 03:25:00,31.6,28.7,29.81,NNE,31,1.0,2.0,89,0.00,,,0.00,Wunderground v.1.15,2013-04-07 08:25:00,
2013-04-07 03:30:00,31.6,28.7,29.81,NNE,31,1.0,2.0,89,0.00,,,0.00,Wunderground v.1.15,2013-04-07 08:30:00,
2013-04-07 03:35:00,31.7,28.8,29.81,NNE,31,1.0,2.0,89,0.00,,,0.00,Wunderground v.1.15,2013-04-07 08:35:00,
2013-04-07 03:40:00,31.7,28.8,29.80,NNE,31,2.0,2.0,89,0.00,,,0.00,Wunderground v.1.15,2013-04-07 08:40:00,
2013-04-07 03:45:00,31.6,28.7,29.81,NNE,31,1.0,2.0,89,0.00,,,0.00,Wunderground v.1.15,2013-04-07 08:45:00,
2013-04-07 03:50:00,31.6,28.5,29.80,NNE,30,1.0,1.0,88,0.00,,,0.00,Wunderground v.1.15,2013-04-07 08:50:00,
2013-04-07 04:00:00,31.6,28.5,29.80,NE,36,2.0,2.0,88,0.00,,,0.00,Wunderground v.1.15,2013-04-07 09:00:00,
2013-04-07 04:10:00,31.5,28.6,29.80,NE,36,2.0,2.0,89,0.00,,,0.00,Wunderground v.1.15,2013-04-07 09:10:00,
2013-04-07 04:15:00,31.5,28.6,29.80,NE,36,1.0,2.0,89,0.00,,,0.00,Wunderground v.1.15,2013-04-07 09:15:00,
2013-04-07 04:20:00,31.5,28.6,29.81,NE,36,1.0,1.0,89,0.00,,,0.00,Wunderground v.1.15,2013-04-07 09:20:00,
2013-04-07 04:25:00,31.5,28.6,29.80,NE,36,1.0,2.0,89,0.00,,,0.00,Wunderground v.1.15,2013-04-07 09:25:00,
2013-04-07 04:35:00,31.5,28.6,29.80,NE,36,1.0,1.0,89,0.00,,,0.00,Wunderground v.1.15,2013-04-07 09:35:00,
2013-04-07 04:40:00,31.4,28.5,29.79,NE,36,1.0,1.0,89,0.00,,,0.00,Wunderground v.1.15,2013-04-07 09:40:00,
2013-04-07 04:45:00,31.4,28.5,29.79,NE,36,1.0,1.0,89,0.00,,,0.00,Wunderground v.1.15,2013-04-07 09:45:00,
2013-04-07 04:50:00,31.4,28.5,29.79,NE,36,2.0,2.0,89,0.00,,,0.00,Wunderground v.1.15,2013-04-07 09:50:00,
2013-04-07 04:55:00,31.4,28.5,29.80,NE,36,2.0,2.0,89,0.00,,,0.00,Wunderground v.1.15,2013-04-07 09:55:00,
2013-04-07 05:00:00,31.3,28.7,29.79,NE,36,1.0,1.0,90,0.00,,,0.00,Wunderground v.1.15,2013-04-07 10:00:00,
2013-04-07 05:10:00,31.3,28.7,29.79,NE,36,2.0,2.0,90,0.00,,,0.00,Wunderground v.1.15,2013-04-07 10:10:00,
2013-04-07 05:15:00,31.3,28.7,29.79,NE,36,2.0,2.0,90,0.00,,,0.00,Wunderground v.1.15,2013-04-07 10:15:00,
2013-04-07 05:20:00,31.2,28.3,29.79,NE,36,2.0,2.0,89,0.00,,,0.00,Wunderground v.1.15,2013-04-07 10:20:00,
2013-04-07 05:25:00,31.2,28.3,29.78,NE,36,2.0,2.0,89,0.00,,,0.00,Wunderground v.1.15,2013-04-07 10:25:00,
2013-04-07 05:30:00,31.2,28.3,29.78,ESE,102,2.0,3.0,89,0.00,,,0.00,Wunderground v.1.15,2013-04-07 10:30:00,
2013-04-07 05:40:00,31.2,28.1,29.78,ESE,102,2.0,3.0,88,0.00,,,0.00,Wunderground v.1.15,2013-04-07 10:40:00,
2013-04-07 05:45:00,31.2,28.1,29.78,ESE,102,2.0,3.0,88,0.00,,,0.00,Wunderground v.1.15,2013-04-07 10:45:00,
2013-04-07 05:55:00,31.1,28.0,29.79,ESE,103,2.0,2.0,88,0.00,,,0.00,Wunderground v.1.15,2013-04-07 10:55:00,
2013-04-07 06:00:00,31.0,28.1,29.79,ESE,105,2.0,2.0,89,0.00,,,0.00,Wunderground v.1.15,2013-04-07 11:00:00,
2013-04-07 06:10:00,30.9,28.0,29.79,SE,146,2.0,6.0,89,0.00,,,0.00,Wunderground v.1.15,2013-04-07 11:10:00,
2013-04-07 06:15:00,30.8,27.9,29.79,SE,141,2.0,6.0,89,0.00,,,0.00,Wunderground v.1.15,2013-04-07 11:15:00,
2013-04-07 06:20:00,30.7,27.8,29.79,SE,141,3.0,3.0,89,0.00,,,0.00,Wunderground v.1.15,2013-04-07 11:20:00,
2013-04-07 06:25:00,30.6,27.7,29.79,SE,137,2.0,3.0,89,0.00,,,0.00,Wunderground v.1.15,2013-04-07 11:25:00,
2013-04-07 06:30:00,30.5,27.4,29.79,SE,138,3.0,3.0,88,0.00,,,0.00,Wunderground v.1.15,2013-04-07 11:30:00,
2013-04-07 06:40:00,30.4,27.3,29.78,SE,138,2.0,3.0,88,0.00,,,0.00,Wunderground v.1.15,2013-04-07 11:40:00,
2013-04-07 06:45:00,30.3,27.2,29.78,ESE,117,2.0,3.0,88,0.00,,,0.00,Wunderground v.1.15,2013-04-07 11:45:00,
2013-04-07 06:50:00,30.2,27.3,29.78,ESE,117,2.0,2.0,89,0.00,,,0.00,Wunderground v.1.15,2013-04-07 11:50:00,
2013-04-07 06:55:00,30.2,27.3,29.79,ESE,117,2.0,2.0,89,0.00,,,0.00,Wunderground v.1.15,2013-04-07 11:55:00,
2013-04-07 07:00:00,30.1,27.3,29.79,ESE,117,2.0,4.0,89,0.00,,,0.00,Wunderground v.1.15,2013-04-07 12:00:00,
2013-04-07 07:10:00,30.1,27.3,29.79,SE,129,3.0,3.0,89,0.00,,,0.00,Wunderground v.1.15,2013-04-07 12:10:00,
2013-04-07 07:15:00,30.1,27.3,29.79,SE,132,3.0,3.0,89,0.00,,,0.00,Wunderground v.1.15,2013-04-07 12:15:00,
2013-04-07 07:20:00,30.1,27.3,29.79,ESE,118,3.0,3.0,89,0.00,,,0.00,Wunderground v.1.15,2013-04-07 12:20:00,
2013-04-07 07:30:00,30.0,27.2,29.78,SSE,164,3.0,4.0,89,0.00,,,0.00,Wunderground v.1.15,2013-04-07 12:30:00,
2013-04-07 07:35:00,29.8,27.0,29.78,SE,142,4.0,4.0,89,0.00,,,0.00,Wunderground v.1.15,2013-04-07 12:35:00,
2013-04-07 07:40:00,29.8,27.0,29.78,SE,127,4.0,4.0,89,0.00,,,0.00,Wunderground v.1.15,2013-04-07 12:40:00,
2013-04-07 07:50:00,29.6,26.8,29.78,ESE,102,4.0,4.0,89,0.00,,,0.00,Wunderground v.1.15,2013-04-07 12:50:00,
2013-04-07 07:55:00,29.6,26.8,29.78,SE,131,5.0,5.0,89,0.00,,,0.00,Wunderground v.1.15,2013-04-07 12:55:00,
2013-04-07 08:00:00,29.5,26.7,29.78,ESE,115,5.0,5.0,89,0.00,,,0.00,Wunderground v.1.15,2013-04-07 13:00:00,
2013-04-07 08:10:00,29.7,26.9,29.79,SSE,149,3.0,5.0,89,0.00,,,0.00,Wunderground v.1.15,2013-04-07 13:10:00,
2013-04-07 08:15:00,29.8,27.0,29.79,SSE,152,3.0,5.0,89,0.00,,,0.00,Wunderground v.1.15,2013-04-07 13:15:00,
2013-04-07 08:25:00,29.9,27.1,29.80,ESE,123,3.0,4.0,89,0.00,,,0.00,Wunderground v.1.15,2013-04-07 13:25:00,
2013-04-07 08:30:00,30.0,27.2,29.80,SE,136,3.0,3.0,89,0.00,,,0.00,Wunderground v.1.15,2013-04-07 13:30:00,
2013-04-07 08:40:00,30.2,27.3,29.80,SE,132,3.0,3.0,89,0.00,,,0.00,Wunderground v.1.15,2013-04-07 13:40:00,
2013-04-07 08:45:00,30.3,27.4,29.80,SE,135,3.0,4.0,89,0.00,,,0.00,Wunderground v.1.15,2013-04-07 13:45:00,
2013-04-07 08:55:00,30.3,27.2,29.80,ESE,122,3.0,3.0,88,0.00,,,0.00,Wunderground v.1.15,2013-04-07 13:55:00,
2013-04-07 09:00:00,30.5,27.4,29.79,SE,129,3.0,3.0,88,0.00,,,0.00,Wunderground v.1.15,2013-04-07 14:00:00,
2013-04-07 09:10:00,30.9,27.8,29.78,SE,144,4.0,5.0,88,0.00,,,0.00,Wunderground v.1.15,2013-04-07 14:10:00,
2013-04-07 09:15:00,30.8,27.7,29.78,SE,127,5.0,5.0,88,0.00,,,0.00,Wunderground v.1.15,2013-04-07 14:15:00,
2013-04-07 09:20:00,30.9,27.8,29.78,SE,127,5.0,5.0,88,0.00,,,0.00,Wunderground v.1.15,2013-04-07 14:20:00,
2013-04-07 09:25:00,31.1,28.0,29.77,SE,138,5.0,6.0,88,0.00,,,0.00,Wunderground v.1.15,2013-04-07 14:25:00,
2013-04-07 09:35:00,31.3,28.2,29.77,SE,145,5.0,8.0,88,0.00,,,0.00,Wunderground v.1.15,2013-04-07 14:35:00,
2013-04-07 09:40:00,31.4,28.3,29.77,SE,133,5.0,5.0,88,0.00,,,0.00,Wunderground v.1.15,2013-04-07 14:40:00,
2013-04-07 09:45:00,31.6,28.5,29.77,ESE,114,4.0,8.0,88,0.00,,,0.00,Wunderground v.1.15,2013-04-07 14:45:00,
2013-04-07 09:50:00,31.7,28.3,29.77,ESE,110,5.0,5.0,87,0.00,,,0.00,Wunderground v.1.15,2013-04-07 14:50:00,
2013-04-07 10:00:00,32.1,28.7,29.76,SE,133,6.0,8.0,87,0.00,,,0.00,Wunderground v.1.15,2013-04-07 15:00:00,
2013-04-07 10:10:00,32.2,28.5,29.76,ESE,103,6.0,6.0,86,0.00,,,0.00,Wunderground v.1.15,2013-04-07 15:10:00,
2013-04-07 10:15:00,32.3,28.6,29.76,ESE,104,6.0,7.0,86,0.00,,,0.00,Wunderground v.1.15,2013-04-07 15:15:00,
2013-04-07 10:20:00,32.5,28.5,29.76,ESE,115,6.0,7.0,85,0.00,,,0.00,Wunderground v.1.15,2013-04-07 15:20:00,
2013-04-07 10:25:00,32.7,28.7,29.76,ESE,109,5.0,7.0,85,0.00,,,0.00,Wunderground v.1.15,2013-04-07 15:25:00,
2013-04-07 11:55:00,34.6,29.4,29.75,SE,138,7.0,12.0,81,0.00,,,0.00,Wunderground v.1.15,2013-04-07 16:55:00,
2013-04-07 12:00:00,34.4,29.5,29.75,SE,144,9.0,9.0,82,0.00,,,0.00,Wunderground v.1.15,2013-04-07 17:00:00,
2013-04-07 12:10:00,34.9,29.7,29.74,SE,125,9.0,13.0,81,0.00,,,0.00,Wunderground v.1.15,2013-04-07 17:10:00,
2013-04-07 12:15:00,35.0,29.8,29.74,South,173,8.0,15.0,81,0.00,,,0.00,Wunderground v.1.15,2013-04-07 17:15:00,
2013-04-07 12:20:00,34.9,29.7,29.74,South,182,8.0,8.0,81,0.00,,,0.00,Wunderground v.1.15,2013-04-07 17:20:00,
2013-04-07 12:25:00,35.1,29.9,29.73,SSE,157,9.0,14.0,81,0.00,,,0.00,Wunderground v.1.15,2013-04-07 17:25:00,
2013-04-07 12:30:00,35.2,30.0,29.73,SSE,163,9.0,10.0,81,0.00,,,0.00,Wunderground v.1.15,2013-04-07 17:30:00,
2013-04-07 12:35:00,35.6,30.3,29.73,SSE,150,8.0,15.0,81,0.00,,,0.00,Wunderground v.1.15,2013-04-07 17:35:00,
2013-04-07 12:40:00,35.8,30.2,29.73,SSE,155,8.0,8.0,80,0.00,,,0.00,Wunderground v.1.15,2013-04-07 17:40:00,
2013-04-07 12:45:00,36.1,30.2,29.72,South,173,9.0,9.0,79,0.00,,,0.00,Wunderground v.1.15,2013-04-07 17:45:00,
2013-04-07 12:50:00,36.4,30.8,29.72,SE,133,7.0,7.0,80,0.00,,,0.00,Wunderground v.1.15,2013-04-07 17:50:00,
2013-04-07 13:00:00,37.2,31.0,29.72,ESE,118,8.0,10.0,78,0.00,,,0.00,Wunderground v.1.15,2013-04-07 18:00:00,
2013-04-07 13:10:00,37.1,31.2,29.71,South,169,8.0,9.0,79,0.00,,,0.00,Wunderground v.1.15,2013-04-07 18:10:00,
2013-04-07 13:20:00,36.3,31.3,29.70,SE,130,8.0,10.0,82,0.00,,,0.00,Wunderground v.1.15,2013-04-07 18:20:00,
2013-04-07 13:25:00,35.7,31.3,29.70,SSE,149,9.0,10.0,84,0.00,,,0.00,Wunderground v.1.15,2013-04-07 18:25:00,
2013-04-07 13:35:00,35.5,31.7,29.69,ESE,117,10.0,12.0,86,0.00,,,0.01,Wunderground v.1.15,2013-04-07 18:35:00,
2013-04-07 13:45:00,35.8,32.0,29.68,SE,143,8.0,10.0,86,0.00,,,0.01,Wunderground v.1.15,2013-04-07 18:45:00,
2013-04-07 13:55:00,36.1,32.3,29.67,South,178,10.0,12.0,86,0.00,,,0.01,Wunderground v.1.15,2013-04-07 18:55:00,
2013-04-07 14:00:00,36.3,32.2,29.67,SSE,153,10.0,10.0,85,0.00,,,0.01,Wunderground v.1.15,2013-04-07 19:00:00,
2013-04-07 14:10:00,37.7,34.2,29.67,ESE,115,9.0,9.0,87,0.00,,,0.02,Wunderground v.1.15,2013-04-07 19:10:00,
2013-04-07 14:20:00,38.9,35.1,29.66,SSE,149,9.0,9.0,86,0.00,,,0.02,Wunderground v.1.15,2013-04-07 19:20:00,
2013-04-07 14:25:00,39.3,34.9,29.65,SSE,148,8.0,14.0,84,0.00,,,0.02,Wunderground v.1.15,2013-04-07 19:25:00,
2013-04-07 14:30:00,39.3,34.3,29.65,SE,132,9.0,9.0,82,0.00,,,0.02,Wunderground v.1.15,2013-04-07 19:30:00,
2013-04-07 14:35:00,39.6,34.6,29.65,SSE,164,10.0,10.0,82,0.00,,,0.02,Wunderground v.1.15,2013-04-07 19:35:00,
2013-04-07 14:40:00,39.7,35.0,29.65,SSE,159,10.0,10.0,83,0.00,,,0.02,Wunderground v.1.15,2013-04-07 19:40:00,
2013-04-07 14:50:00,40.0,34.9,29.66,SSE,154,9.0,9.0,82,0.00,,,0.02,Wunderground v.1.15,2013-04-07 19:50:00,
2013-04-07 14:55:00,40.3,34.9,29.65,SE,141,8.0,9.0,81,0.00,,,0.02,Wunderground v.1.15,2013-04-07 19:55:00,
2013-04-07 15:00:00,40.9,35.2,29.65,SE,130,8.0,8.0,80,0.00,,,0.02,Wunderground v.1.15,2013-04-07 20:00:00,
2013-04-07 15:10:00,42.0,35.0,29.66,SSE,157,7.0,9.0,76,0.00,,,0.02,Wunderground v.1.15,2013-04-07 20:10:00,
2013-04-07 15:20:00,42.1,35.1,29.66,South,171,9.0,9.0,76,0.00,,,0.02,Wunderground v.1.15,2013-04-07 20:20:00,
2013-04-07 15:25:00,42.4,35.0,29.66,SSE,161,9.0,11.0,75,0.00,,,0.02,Wunderground v.1.15,2013-04-07 20:25:00,
2013-04-07 15:35:00,42.8,34.7,29.65,SE,136,8.0,9.0,73,0.00,,,0.02,Wunderground v.1.15,2013-04-07 20:35:00,
2013-04-07 15:40:00,43.5,35.1,29.65,SE,132,7.0,7.0,72,0.00,,,0.02,Wunderground v.1.15,2013-04-07 20:40:00,
2013-04-07 15:45:00,43.7,34.9,29.66,SSE,159,6.0,14.0,71,0.00,,,0.02,Wunderground v.1.15,2013-04-07 20:45:00,
2013-04-07 15:55:00,44.7,35.9,29.66,SSE,168,5.0,6.0,71,0.00,,,0.02,Wunderground v.1.15,2013-04-07 20:55:00,
2013-04-07 16:00:00,45.4,36.2,29.66,South,174,4.0,4.0,70,0.00,,,0.02,Wunderground v.1.15,2013-04-07 21:00:00,
2013-04-07 16:10:00,46.0,35.7,29.66,SE,142,5.0,5.0,67,0.00,,,0.02,Wunderground v.1.15,2013-04-07 21:10:00,
2013-04-07 16:15:00,46.3,35.6,29.65,SSW,211,5.0,5.0,66,0.00,,,0.02,Wunderground v.1.15,2013-04-07 21:15:00,
2013-04-07 16:25:00,47.1,35.9,29.65,SSW,203,5.0,5.0,65,0.00,,,0.02,Wunderground v.1.15,2013-04-07 21:25:00,
2013-04-07 16:30:00,47.7,36.1,29.65,SSE,168,4.0,4.0,64,0.00,,,0.02,Wunderground v.1.15,2013-04-07 21:30:00,
2013-04-07 16:35:00,47.4,35.4,29.65,South,185,5.0,5.0,63,0.00,,,0.02,Wunderground v.1.15,2013-04-07 21:35:00,
2013-04-07 16:40:00,47.8,35.8,29.65,South,188,5.0,11.0,63,0.00,,,0.02,Wunderground v.1.15,2013-04-07 21:40:00,
2013-04-07 16:45:00,48.0,36.0,29.64,SSW,198,5.0,11.0,63,0.00,,,0.02,Wunderground v.1.15,2013-04-07 21:45:00,
2013-04-07 16:50:00,48.1,36.1,29.64,SSE,159,5.0,5.0,63,0.00,,,0.02,Wunderground v.1.15,2013-04-07 21:50:00,
2013-04-07 16:55:00,48.2,36.2,29.64,South,176,5.0,6.0,63,0.00,,,0.02,Wunderground v.1.15,2013-04-07 21:55:00,
2013-04-07 17:00:00,48.7,36.3,29.64,South,190,5.0,5.0,62,0.00,,,0.02,Wunderground v.1.15,2013-04-07 22:00:00,
2013-04-07 17:10:00,49.0,36.5,29.64,SSE,148,5.0,6.0,62,0.00,,,0.02,Wunderground v.1.15,2013-04-07 22:10:00,
2013-04-07 17:15:00,49.2,36.3,29.64,SSE,160,5.0,6.0,61,0.00,,,0.02,Wunderground v.1.15,2013-04-07 22:15:00,
2013-04-07 17:25:00,49.0,36.1,29.64,SSE,156,6.0,11.0,61,0.00,,,0.02,Wunderground v.1.15,2013-04-07 22:25:00,
2013-04-07 17:30:00,49.3,36.4,29.63,South,180,5.0,11.0,61,0.00,,,0.02,Wunderground v.1.15,2013-04-07 22:30:00,
2013-04-07 17:40:00,49.9,36.6,29.63,ESE,111,5.0,5.0,60,0.00,,,0.02,Wunderground v.1.15,2013-04-07 22:40:00,
2013-04-07 17:45:00,50.0,36.7,29.63,SSE,152,4.0,5.0,60,0.00,,,0.02,Wunderground v.1.15,2013-04-07 22:45:00,
2013-04-07 17:50:00,50.3,36.9,29.64,SSE,156,4.0,6.0,60,0.00,,,0.02,Wunderground v.1.15,2013-04-07 22:50:00,
2013-04-07 18:00:00,50.3,36.9,29.63,SSE,165,4.0,4.0,60,0.00,,,0.02,Wunderground v.1.15,2013-04-07 23:00:00,
2013-04-07 18:10:00,50.8,37.0,29.63,SE,137,4.0,4.0,59,0.00,,,0.02,Wunderground v.1.15,2013-04-07 23:10:00,
2013-04-07 18:15:00,50.6,36.8,29.62,SE,136,4.0,5.0,59,0.00,,,0.02,Wunderground v.1.15,2013-04-07 23:15:00,
2013-04-07 18:20:00,50.9,37.1,29.62,SSE,161,4.0,4.0,59,0.00,,,0.02,Wunderground v.1.15,2013-04-07 23:20:00,
2013-04-07 18:30:00,50.8,37.0,29.63,SE,132,3.0,3.0,59,0.00,,,0.02,Wunderground v.1.15,2013-04-07 23:30:00,
2013-04-07 18:35:00,50.8,36.5,29.63,SE,127,4.0,5.0,58,0.00,,,0.02,Wunderground v.1.15,2013-04-07 23:35:00,
2013-04-07 18:40:00,50.6,36.8,29.63,SSE,147,4.0,5.0,59,0.00,,,0.02,Wunderground v.1.15,2013-04-07 23:40:00,
2013-04-07 18:45:00,50.4,36.6,29.62,SE,130,5.0,5.0,59,0.00,,,0.02,Wunderground v.1.15,2013-04-07 23:45:00,
2013-04-07 18:50:00,50.2,36.4,29.62,SSE,168,5.0,5.0,59,0.00,,,0.02,Wunderground v.1.15,2013-04-07 23:50:00,
2013-04-07 18:55:00,50.0,36.2,29.62,SE,138,5.0,5.0,59,0.00,,,0.02,Wunderground v.1.15,2013-04-07 23:55:00,
2013-04-07 19:00:00,49.7,36.4,29.63,SSE,149,5.0,5.0,60,0.00,,,0.02,Wunderground v.1.15,2013-04-08 00:00:00,
2013-04-07 19:10:00,49.2,35.9,29.63,SE,135,4.0,4.0,60,0.00,,,0.02,Wunderground v.1.15,2013-04-08 00:10:00,
2013-04-07 19:20:00,48.6,36.2,29.63,ESE,120,3.0,3.0,62,0.00,,,0.02,Wunderground v.1.15,2013-04-08 00:20:00,
2013-04-07 19:25:00,48.2,35.8,29.63,ESE,122,3.0,3.0,62,0.00,,,0.02,Wunderground v.1.15,2013-04-08 00:25:00,
2013-04-07 19:30:00,47.9,35.9,29.63,SE,127,3.0,3.0,63,0.00,,,0.02,Wunderground v.1.15,2013-04-08 00:30:00,
2013-04-07 19:40:00,47.3,35.7,29.62,ESE,110,3.0,3.0,64,0.00,,,0.02,Wunderground v.1.15,2013-04-08 00:40:00,
2013-04-07 19:45:00,46.9,35.7,29.62,ESE,117,3.0,5.0,65,0.00,,,0.02,Wunderground v.1.15,2013-04-08 00:45:00,
2013-04-07 19:55:00,45.9,35.2,29.63,ESE,122,4.0,4.0,66,0.00,,,0.02,Wunderground v.1.15,2013-04-08 00:55:00,
2013-04-07 20:00:00,45.3,35.0,29.63,ESE,122,3.0,3.0,67,0.00,,,0.02,Wunderground v.1.15,2013-04-08 01:00:00,
2013-04-07 20:10:00,44.2,34.7,29.62,ESE,113,3.0,3.0,69,0.00,,,0.02,Wunderground v.1.15,2013-04-08 01:10:00,
2013-04-07 20:15:00,43.7,34.6,29.63,ESE,102,3.0,3.0,70,0.00,,,0.02,Wunderground v.1.15,2013-04-08 01:15:00,
2013-04-07 20:20:00,43.1,34.3,29.62,ESE,107,3.0,3.0,71,0.00,,,0.02,Wunderground v.1.15,2013-04-08 01:20:00,
2013-04-07 20:25:00,42.4,34.0,29.62,East,99,2.0,3.0,72,0.00,,,0.02,Wunderground v.1.15,2013-04-08 01:25:00,
2013-04-07 20:30:00,41.8,34.8,29.62,East,100,2.0,4.0,76,0.00,,,0.02,Wunderground v.1.15,2013-04-08 01:30:00,
2013-04-07 20:40:00,40.7,33.4,29.63,ESE,120,2.0,3.0,75,0.00,,,0.02,Wunderground v.1.15,2013-04-08 01:40:00,
2013-04-07 20:45:00,40.3,33.0,29.63,ESE,109,2.0,3.0,75,0.00,,,0.02,Wunderground v.1.15,2013-04-08 01:45:00,
2013-04-07 20:50:00,39.8,32.8,29.63,ESE,105,3.0,3.0,76,0.00,,,0.02,Wunderground v.1.15,2013-04-08 01:50:00,
2013-04-07 21:00:00,39.3,32.7,29.63,ESE,111,3.0,4.0,77,0.00,,,0.02,Wunderground v.1.15,2013-04-08 02:00:00,
2013-04-07 21:10:00,38.7,32.4,29.62,ESE,104,3.0,5.0,78,0.00,,,0.02,Wunderground v.1.15,2013-04-08 02:10:00,
2013-04-07 21:15:00,38.3,32.4,29.62,SE,127,4.0,6.0,79,0.00,,,0.02,Wunderground v.1.15,2013-04-08 02:15:00,
2013-04-07 21:25:00,37.7,32.1,29.63,East,100,5.0,5.0,80,0.00,,,0.02,Wunderground v.1.15,2013-04-08 02:25:00,
2013-04-07 21:30:00,37.3,32.0,29.63,East,99,4.0,4.0,81,0.00,,,0.02,Wunderground v.1.15,2013-04-08 02:30:00,
2013-04-07 21:40:00,36.6,31.6,29.63,East,96,4.0,4.0,82,0.00,,,0.02,Wunderground v.1.15,2013-04-08 02:40:00,
2013-04-07 21:50:00,36.0,31.3,29.64,East,86,4.0,4.0,83,0.00,,,0.02,Wunderground v.1.15,2013-04-08 02:50:00,
2013-04-07 21:55:00,35.7,31.0,29.64,East,83,4.0,8.0,83,0.00,,,0.02,Wunderground v.1.15,2013-04-08 02:55:00,
2013-04-07 22:00:00,35.5,31.1,29.65,East,94,4.0,6.0,84,0.00,,,0.02,Wunderground v.1.15,2013-04-08 03:00:00,
2013-04-07 22:10:00,35.0,30.7,29.65,ENE,74,5.0,5.0,84,0.00,,,0.02,Wunderground v.1.15,2013-04-08 03:10:00,
2013-04-07 22:15:00,34.8,30.8,29.65,ESE,110,4.0,5.0,85,0.00,,,0.02,Wunderground v.1.15,2013-04-08 03:15:00,
2013-04-07 22:20:00,34.4,30.4,29.65,ESE,117,5.0,8.0,85,0.00,,,0.02,Wunderground v.1.15,2013-04-08 03:20:00,
2013-04-07 22:25:00,34.4,30.6,29.65,ESE,111,5.0,8.0,86,0.00,,,0.02,Wunderground v.1.15,2013-04-08 03:25:00,
2013-04-07 22:35:00,33.9,30.4,29.65,ESE,105,4.0,6.0,87,0.00,,,0.02,Wunderground v.1.15,2013-04-08 03:35:00,
2013-04-07 22:40:00,33.8,30.3,29.65,ENE,76,4.0,6.0,87,0.00,,,0.02,Wunderground v.1.15,2013-04-08 03:40:00,
2013-04-07 22:45:00,33.6,30.1,29.65,East,90,4.0,6.0,87,0.00,,,0.02,Wunderground v.1.15,2013-04-08 03:45:00,
2013-04-07 22:55:00,33.3,30.1,29.67,ESE,113,3.0,4.0,88,0.00,,,0.02,Wunderground v.1.15,2013-04-08 03:55:00,
2013-04-07 23:00:00,33.0,29.8,29.67,ESE,106,3.0,3.0,88,0.00,,,0.02,Wunderground v.1.15,2013-04-08 04:00:00,
2013-04-07 23:10:00,32.4,29.2,29.67,ESE,103,3.0,3.0,88,0.00,,,0.02,Wunderground v.1.15,2013-04-08 04:10:00,
2013-04-07 23:15:00,32.1,29.2,29.67,SE,138,3.0,3.0,89,0.00,,,0.02,Wunderground v.1.15,2013-04-08 04:15:00,
2013-04-07 23:20:00,31.9,29.0,29.66,East,99,4.0,5.0,89,0.00,,,0.02,Wunderground v.1.15,2013-04-08 04:20:00,
2013-04-07 23:25:00,31.7,29.1,29.66,ESE,102,4.0,5.0,90,0.00,,,0.02,Wunderground v.1.15,2013-04-08 04:25:00,
2013-04-07 23:30:00,31.6,29.0,29.66,East,95,4.0,4.0,90,0.00,,,0.02,Wunderground v.1.15,2013-04-08 04:30:00,
2013-04-07 23:40:00,31.4,29.1,29.66,East,88,4.0,4.0,91,0.00,,,0.02,Wunderground v.1.15,2013-04-08 04:40:00,
2013-04-07 23:50:00,31.6,29.3,29.66,East,93,3.0,3.0,91,0.00,,,0.02,Wunderground v.1.15,2013-04-08 04:50:00,
2013-04-07 23:55:00,31.7,29.6,29.66,ESE,123,3.0,5.0,92,0.00,,,0.02,Wunderground v.1.15,2013-04-08 04:55:00,